Time;durP1;ratioP1;P1;durP2;ratioP2;P2;SDS_P1;SDS_P2;PMS_P1;PMS_P2;Temp;Humidity;BMP_temperature;BMP_pressure;BME280_temperature;BME280_humidity;BME280_pressure;Samples;Min_cycle;Max_cycle;Signal;HPM_P1;HPM_P2
2023/02/02 00:01:33;;;;;;;101.43;55.07;;;;;;;;;;4367123;32;372098;-89
2023/02/02 00:04:04;;;;;;;102.07;57.27;;;;;;;;;;4374324;32;318774;-89
2023/02/02 00:06:35;;;;;;;114.27;60.33;;;;;;;;;;4360985;32;390938;-89
2023/02/02 00:09:04;;;;;;;145.80;81.47;;;;;;;;;;4360845;32;318862;-89
2023/02/02 00:11:31;;;;;;;230.93;115.53;;;;;;;;;;4374212;32;340577;-89
2023/02/02 00:14:00;;;;;;;201.57;108.17;;;;;;;;;;4356401;32;320018;-89
2023/02/02 00:16:39;;;;;;;168.27;90.53;;;;;;;;;;4343987;32;392253;-89
2023/02/02 00:19:08;;;;;;;150.90;80.53;;;;;;;;;;4364687;32;326094;-89
2023/02/02 00:21:37;;;;;;;133.83;71.20;;;;;;;;;;4373408;32;318650;-89
2023/02/02 00:24:06;;;;;;;110.97;57.57;;;;;;;;;;4362957;32;366355;-88
2023/02/02 00:26:34;;;;;;;66.83;35.73;;;;;;;;;;4368199;32;318677;-89
2023/02/02 00:29:06;;;;;;;54.07;33.80;;;;;;;;;;4371421;32;317624;-91
2023/02/02 00:31:42;;;;;;;45.70;26.00;;;;;;;;;;4359252;32;416405;-89
2023/02/02 00:34:11;;;;;;;51.27;27.77;;;;;;;;;;4363958;32;317443;-92
2023/02/02 00:36:47;;;;;;;46.23;26.87;;;;;;;;;;4382402;32;317255;-90
2023/02/02 00:39:17;;;;;;;58.77;33.40;;;;;;;;;;4372204;32;317330;-91
2023/02/02 00:41:44;;;;;;;68.43;35.57;;;;;;;;;;4380687;32;317452;-90
2023/02/02 00:46:57;;;;;;;75.30;38.40;;;;;;;;;;4377317;32;317328;-89
2023/02/02 00:49:24;;;;;;;75.03;42.47;;;;;;;;;;4367306;32;317308;-91
2023/02/02 00:51:52;;;;;;;77.20;42.17;;;;;;;;;;4378174;32;317768;-90
2023/02/02 00:54:19;;;;;;;94.63;45.83;;;;;;;;;;4364744;32;317576;-89
2023/02/02 00:56:47;;;;;;;87.93;46.77;;;;;;;;;;4377594;32;317661;-89
2023/02/02 00:59:16;;;;;;;94.33;49.13;;;;;;;;;;4366966;32;317570;-89
2023/02/02 01:01:43;;;;;;;92.97;49.07;;;;;;;;;;4368541;32;317840;-88
2023/02/02 01:04:10;;;;;;;85.80;45.97;;;;;;;;;;4370173;32;317431;-89
2023/02/02 01:06:37;;;;;;;81.87;45.73;;;;;;;;;;4366620;32;317624;-88
2023/02/02 01:09:04;;;;;;;79.67;45.00;;;;;;;;;;4369906;32;317615;-89
2023/02/02 01:11:32;;;;;;;85.37;44.17;;;;;;;;;;4374087;32;318028;-90
2023/02/02 01:13:59;;;;;;;81.43;43.73;;;;;;;;;;4378411;32;318059;-89
2023/02/02 01:16:28;;;;;;;83.40;42.83;;;;;;;;;;4361705;32;318367;-89
2023/02/02 01:18:54;;;;;;;89.83;45.07;;;;;;;;;;4371378;32;317546;-89
2023/02/02 01:21:22;;;;;;;87.27;46.57;;;;;;;;;;4362147;32;317477;-89
2023/02/02 01:23:49;;;;;;;78.93;43.00;;;;;;;;;;4370491;32;317514;-89
2023/02/02 01:26:17;;;;;;;82.10;43.73;;;;;;;;;;4361314;32;317582;-89
2023/02/02 01:28:45;;;;;;;80.80;45.00;;;;;;;;;;4366001;32;317475;-88
2023/02/02 01:31:14;;;;;;;88.30;49.23;;;;;;;;;;4360094;32;317519;-89
2023/02/02 01:33:43;;;;;;;90.60;48.47;;;;;;;;;;4369563;32;317573;-89
2023/02/02 01:36:13;;;;;;;97.10;51.90;;;;;;;;;;4355846;32;317579;-91
2023/02/02 01:38:41;;;;;;;86.73;49.57;;;;;;;;;;4371381;32;317898;-89
2023/02/02 01:41:21;;;;;;;87.00;50.40;;;;;;;;;;4361635;32;317467;-89
2023/02/02 01:43:56;;;;;;;86.13;46.67;;;;;;;;;;4370748;32;317488;-89
2023/02/02 01:46:27;;;;;;;82.40;47.73;;;;;;;;;;4343366;32;326767;-88
2023/02/02 01:49:01;;;;;;;89.10;48.73;;;;;;;;;;4380628;32;317423;-89
2023/02/02 01:51:35;;;;;;;77.10;45.80;;;;;;;;;;4348010;32;417108;-90
2023/02/02 01:54:06;;;;;;;82.43;46.47;;;;;;;;;;4362112;32;317770;-89
2023/02/02 01:56:37;;;;;;;88.93;46.00;;;;;;;;;;4371823;32;317474;-89
2023/02/02 01:59:05;;;;;;;90.87;47.10;;;;;;;;;;4362451;32;317368;-89
2023/02/02 02:01:33;;;;;;;90.63;48.70;;;;;;;;;;4373397;32;317648;-89
2023/02/02 02:04:03;;;;;;;84.30;47.50;;;;;;;;;;4386841;32;318276;-89
2023/02/02 02:06:33;;;;;;;89.30;50.47;;;;;;;;;;4360972;32;389939;-89
2023/02/02 02:09:02;;;;;;;102.13;54.93;;;;;;;;;;4372082;32;317487;-90
2023/02/02 02:11:30;;;;;;;100.63;55.37;;;;;;;;;;4372576;32;421048;-89
2023/02/02 02:17:02;;;;;;;98.10;54.00;;;;;;;;;;4382170;32;388567;-89
2023/02/02 02:26:45;;;;;;;127.93;73.57;;;;;;;;;;4342204;32;388986;-89
2023/02/02 02:29:34;;;;;;;108.77;64.60;;;;;;;;;;4376263;32;318321;-89
2023/02/02 02:32:13;;;;;;;104.80;61.70;;;;;;;;;;4396486;32;318282;-89
2023/02/02 02:34:52;;;;;;;104.63;59.47;;;;;;;;;;4356118;32;389289;-89
2023/02/02 02:37:32;;;;;;;102.23;60.23;;;;;;;;;;4380629;32;318219;-90
2023/02/02 02:40:07;;;;;;;109.03;61.07;;;;;;;;;;4395125;32;317288;-89
2023/02/02 02:42:43;;;;;;;108.37;60.03;;;;;;;;;;4382341;32;417671;-88
2023/02/02 02:45:14;;;;;;;115.33;59.77;;;;;;;;;;4372471;32;317264;-90
2023/02/02 02:47:44;;;;;;;113.60;63.73;;;;;;;;;;4383623;32;318669;-89
2023/02/02 02:50:13;;;;;;;116.33;63.87;;;;;;;;;;4389014;32;327062;-88
2023/02/02 02:52:41;;;;;;;120.93;63.80;;;;;;;;;;4404371;32;318142;-88
2023/02/02 02:55:10;;;;;;;132.33;72.20;;;;;;;;;;4378195;32;318379;-89
2023/02/02 02:57:53;;;;;;;119.27;64.73;;;;;;;;;;4386723;32;318383;-88
2023/02/02 03:00:41;;;;;;;111.37;62.20;;;;;;;;;;4374566;32;317305;-88
2023/02/02 03:03:19;;;;;;;124.27;66.67;;;;;;;;;;4373814;32;318346;-89
2023/02/02 03:05:54;;;;;;;114.40;63.17;;;;;;;;;;4370253;32;318169;-89
2023/02/02 03:08:27;;;;;;;111.63;62.93;;;;;;;;;;4377775;32;325386;-89
2023/02/02 03:10:56;;;;;;;116.17;60.87;;;;;;;;;;4391130;32;317153;-89
2023/02/02 03:13:25;;;;;;;112.80;62.13;;;;;;;;;;4384678;32;318271;-89
2023/02/02 03:15:54;;;;;;;105.50;58.40;;;;;;;;;;4389538;32;317199;-89
2023/02/02 03:18:27;;;;;;;103.87;57.63;;;;;;;;;;4373237;32;350383;-89
2023/02/02 03:20:54;;;;;;;98.10;56.20;;;;;;;;;;4388157;32;317191;-89
2023/02/02 03:23:24;;;;;;;104.63;58.67;;;;;;;;;;4377117;32;315844;-90
2023/02/02 03:25:51;;;;;;;103.20;56.60;;;;;;;;;;4388655;32;317201;-90
2023/02/02 03:28:19;;;;;;;125.93;67.97;;;;;;;;;;4379826;32;317062;-90
2023/02/02 03:30:47;;;;;;;110.27;67.37;;;;;;;;;;4389509;32;317046;-88
2023/02/02 03:33:15;;;;;;;115.40;64.53;;;;;;;;;;4377953;32;317194;-89
2023/02/02 03:35:44;;;;;;;111.23;62.83;;;;;;;;;;4385982;32;317221;-89
2023/02/02 03:38:12;;;;;;;126.87;65.70;;;;;;;;;;4377582;32;317223;-90
2023/02/02 03:40:42;;;;;;;99.97;57.23;;;;;;;;;;4389651;32;317056;-88
2023/02/02 03:43:11;;;;;;;84.60;50.53;;;;;;;;;;4376819;32;316151;-88
2023/02/02 03:45:39;;;;;;;89.53;51.67;;;;;;;;;;4361912;32;330490;-90
2023/02/02 03:48:13;;;;;;;99.57;53.67;;;;;;;;;;4365860;32;317445;-89
2023/02/02 03:50:40;;;;;;;108.57;56.00;;;;;;;;;;4370103;32;325263;-89
2023/02/02 03:53:09;;;;;;;101.50;56.03;;;;;;;;;;4371234;32;353179;-90
2023/02/02 03:55:39;;;;;;;104.80;55.83;;;;;;;;;;4374877;32;318083;-90
2023/02/02 03:58:06;;;;;;;97.67;53.17;;;;;;;;;;4355746;32;356196;-88
2023/02/02 04:00:33;;;;;;;87.87;51.60;;;;;;;;;;4373172;32;317366;-89
2023/02/02 04:03:02;;;;;;;101.23;52.57;;;;;;;;;;4374741;32;317487;-90
2023/02/02 04:05:29;;;;;;;99.67;52.50;;;;;;;;;;4351833;32;421367;-89
2023/02/02 04:07:56;;;;;;;88.37;50.30;;;;;;;;;;4370834;32;332955;-89
2023/02/02 04:10:25;;;;;;;90.93;52.17;;;;;;;;;;4363407;32;318033;-90
2023/02/02 04:12:52;;;;;;;96.67;52.87;;;;;;;;;;4377025;32;317606;-89
2023/02/02 04:15:20;;;;;;;96.70;53.63;;;;;;;;;;4365021;32;317437;-89
2023/02/02 04:17:47;;;;;;;94.40;54.43;;;;;;;;;;4361750;32;317402;-90
2023/02/02 04:20:16;;;;;;;88.43;52.80;;;;;;;;;;4361125;32;349580;-89
2023/02/02 04:22:43;;;;;;;99.93;56.57;;;;;;;;;;4368948;32;336844;-90
2023/02/02 04:25:11;;;;;;;105.53;58.43;;;;;;;;;;4367704;32;317527;-89
2023/02/02 04:27:41;;;;;;;137.83;65.23;;;;;;;;;;4372282;32;318439;-89
2023/02/02 04:30:09;;;;;;;142.50;70.37;;;;;;;;;;4356376;32;318871;-89
2023/02/02 04:32:36;;;;;;;136.27;64.83;;;;;;;;;;4366129;32;318463;-90
2023/02/02 04:35:04;;;;;;;111.17;58.23;;;;;;;;;;4362996;32;318503;-90
2023/02/02 04:37:32;;;;;;;105.77;55.73;;;;;;;;;;4374712;32;318635;-89
2023/02/02 04:39:59;;;;;;;77.57;44.23;;;;;;;;;;4376162;32;318681;-89
2023/02/02 04:42:27;;;;;;;81.47;42.33;;;;;;;;;;4364507;32;317265;-90
2023/02/02 04:44:56;;;;;;;76.67;38.53;;;;;;;;;;4373698;32;317534;-90
2023/02/02 04:47:26;;;;;;;83.57;49.47;;;;;;;;;;4367127;32;317863;-90
2023/02/02 04:49:54;;;;;;;94.20;54.43;;;;;;;;;;4352882;32;317409;-90
2023/02/02 04:52:22;;;;;;;80.80;47.57;;;;;;;;;;4349336;32;317641;-89
2023/02/02 04:54:49;;;;;;;83.97;42.87;;;;;;;;;;4368037;32;317353;-90
2023/02/02 04:57:20;;;;;;;56.53;35.43;;;;;;;;;;4349280;32;317411;-90
2023/02/02 04:59:47;;;;;;;54.13;31.73;;;;;;;;;;4372465;32;317443;-90
2023/02/02 05:02:18;;;;;;;58.40;33.73;;;;;;;;;;4361422;32;332704;-90
2023/02/02 05:04:46;;;;;;;54.63;34.53;;;;;;;;;;4369038;32;317483;-89
2023/02/02 05:07:14;;;;;;;84.10;44.37;;;;;;;;;;4360040;32;333520;-90
2023/02/02 05:09:42;;;;;;;92.00;48.23;;;;;;;;;;4367604;32;317972;-90
2023/02/02 05:12:09;;;;;;;86.00;48.87;;;;;;;;;;4360358;32;351813;-90
2023/02/02 05:14:37;;;;;;;94.87;48.40;;;;;;;;;;4371558;32;317524;-90
2023/02/02 05:17:04;;;;;;;115.33;53.00;;;;;;;;;;4362910;32;317411;-90
2023/02/02 05:19:33;;;;;;;97.60;51.70;;;;;;;;;;4373385;32;318441;-90
2023/02/02 05:22:01;;;;;;;81.40;41.70;;;;;;;;;;4371333;32;317430;-90
2023/02/02 05:24:28;;;;;;;107.90;47.20;;;;;;;;;;4360932;32;419951;-90
2023/02/02 05:26:59;;;;;;;112.83;51.77;;;;;;;;;;4367220;32;318494;-90
2023/02/02 05:29:29;;;;;;;140.03;59.87;;;;;;;;;;4362378;32;319148;-90
2023/02/02 05:32:03;;;;;;;140.00;69.93;;;;;;;;;;4370479;32;318105;-91
2023/02/02 05:34:33;;;;;;;136.07;66.47;;;;;;;;;;4359137;32;390412;-90
2023/02/02 05:37:00;;;;;;;120.03;62.00;;;;;;;;;;4371558;32;318541;-90
2023/02/02 05:39:28;;;;;;;131.10;65.87;;;;;;;;;;4358168;32;420919;-90
2023/02/02 05:41:58;;;;;;;110.97;63.53;;;;;;;;;;4372531;32;318551;-90
2023/02/02 05:44:26;;;;;;;126.27;63.23;;;;;;;;;;4356453;32;318626;-90
2023/02/02 05:47:02;;;;;;;115.27;63.60;;;;;;;;;;4388591;32;317997;-90
2023/02/02 05:49:31;;;;;;;131.23;69.50;;;;;;;;;;4353570;32;418146;-90
2023/02/02 05:52:00;;;;;;;118.90;68.47;;;;;;;;;;4369958;32;318619;-90
2023/02/02 05:54:27;;;;;;;124.73;68.13;;;;;;;;;;4375802;32;318669;-90
2023/02/02 05:56:56;;;;;;;129.03;65.60;;;;;;;;;;4357166;32;318373;-90
2023/02/02 05:59:28;;;;;;;153.60;81.00;;;;;;;;;;4375981;32;318300;-90
2023/02/02 06:01:55;;;;;;;127.93;74.13;;;;;;;;;;4386280;32;318432;-90
2023/02/02 06:04:24;;;;;;;131.97;69.20;;;;;;;;;;4369721;32;318389;-89
2023/02/02 06:06:51;;;;;;;136.77;74.43;;;;;;;;;;4377133;32;317504;-90
2023/02/02 06:09:22;;;;;;;134.07;70.00;;;;;;;;;;4366450;32;318478;-89
2023/02/02 06:11:50;;;;;;;127.87;66.77;;;;;;;;;;4383011;32;318738;-89
2023/02/02 06:14:17;;;;;;;145.53;85.80;;;;;;;;;;4372546;32;317384;-91
2023/02/02 06:16:44;;;;;;;149.43;82.77;;;;;;;;;;4388146;32;329095;-91
2023/02/02 06:19:15;;;;;;;159.50;88.90;;;;;;;;;;4371890;32;318256;-90
2023/02/02 06:21:42;;;;;;;193.60;100.43;;;;;;;;;;4379601;32;318705;-90
2023/02/02 06:24:10;;;;;;;157.97;90.03;;;;;;;;;;4369685;32;319596;-90
2023/02/02 06:26:38;;;;;;;138.93;78.23;;;;;;;;;;4364029;32;317480;-90
2023/02/02 06:29:07;;;;;;;125.33;69.37;;;;;;;;;;4369156;32;318561;-91
2023/02/02 06:31:35;;;;;;;123.83;65.63;;;;;;;;;;4377581;32;318414;-91
2023/02/02 06:34:02;;;;;;;142.90;77.93;;;;;;;;;;4377931;32;318957;-92
2023/02/02 06:36:30;;;;;;;134.93;75.80;;;;;;;;;;4361497;27;390248;-86
2023/02/02 06:38:58;;;;;;;134.50;79.57;;;;;;;;;;4375601;32;317758;-85
2023/02/02 06:41:25;;;;;;;149.80;82.97;;;;;;;;;;4377320;32;318995;-82
2023/02/02 06:43:54;;;;;;;146.80;81.97;;;;;;;;;;4387348;32;317842;-81
2023/02/02 06:46:21;;;;;;;123.57;73.43;;;;;;;;;;4375292;32;336857;-84
2023/02/02 06:48:49;;;;;;;129.03;71.33;;;;;;;;;;4386235;32;318833;-88
2023/02/02 06:51:17;;;;;;;135.20;71.37;;;;;;;;;;4377632;32;318852;-82
2023/02/02 06:53:44;;;;;;;162.27;88.27;;;;;;;;;;4388411;32;318841;-88
2023/02/02 06:56:14;;;;;;;171.77;93.27;;;;;;;;;;4377700;32;318938;-82
2023/02/02 06:58:41;;;;;;;172.60;88.67;;;;;;;;;;4387571;32;318707;-89
2023/02/02 07:01:12;;;;;;;162.07;88.43;;;;;;;;;;4376717;32;318764;-83
2023/02/02 07:03:40;;;;;;;161.20;85.27;;;;;;;;;;4387434;32;318737;-88
2023/02/02 07:06:13;;;;;;;177.20;96.17;;;;;;;;;;4373728;32;317584;-83
2023/02/02 07:08:41;;;;;;;259.37;141.40;;;;;;;;;;4387495;32;318766;-82
2023/02/02 07:11:08;;;;;;;256.47;135.30;;;;;;;;;;4375669;32;319777;-89
2023/02/02 07:13:36;;;;;;;164.87;95.33;;;;;;;;;;4386195;32;320209;-86
2023/02/02 07:16:04;;;;;;;161.87;95.10;;;;;;;;;;4376124;32;319011;-88
2023/02/02 07:18:35;;;;;;;207.73;117.10;;;;;;;;;;4387633;32;318687;-83
2023/02/02 07:21:03;;;;;;;190.77;95.20;;;;;;;;;;4386379;32;360404;-82
2023/02/02 07:23:31;;;;;;;168.90;95.07;;;;;;;;;;4367669;32;418243;-92
2023/02/02 07:26:03;;;;;;;180.50;96.43;;;;;;;;;;4389375;32;319029;-86
2023/02/02 07:28:30;;;;;;;161.93;93.50;;;;;;;;;;4390810;32;416944;-81
2023/02/02 07:30:58;;;;;;;181.63;99.03;;;;;;;;;;4402155;32;348743;-90
2023/02/02 07:33:25;;;;;;;208.57;110.77;;;;;;;;;;4387182;32;318287;-87
2023/02/02 07:35:57;;;;;;;202.10;114.23;;;;;;;;;;4391820;32;319201;-85
2023/02/02 07:38:25;;;;;;;202.73;112.67;;;;;;;;;;4375936;32;320055;-90
2023/02/02 07:40:53;;;;;;;209.33;113.27;;;;;;;;;;4385999;32;319842;-86
2023/02/02 07:43:20;;;;;;;204.20;115.13;;;;;;;;;;4375991;32;320254;-88
2023/02/02 07:45:48;;;;;;;191.93;112.07;;;;;;;;;;4386277;32;320184;-93
2023/02/02 07:48:15;;;;;;;214.63;114.47;;;;;;;;;;4376216;32;320051;-91
2023/02/02 07:50:42;;;;;;;211.63;119.47;;;;;;;;;;4386706;32;319970;-88
2023/02/02 07:53:12;;;;;;;211.70;121.70;;;;;;;;;;4375351;32;319917;-93
2023/02/02 07:55:39;;;;;;;211.17;123.40;;;;;;;;;;4386625;32;319866;-87
2023/02/02 07:58:09;;;;;;;201.00;115.43;;;;;;;;;;4374011;32;351443;-84
2023/02/02 08:00:36;;;;;;;185.83;110.07;;;;;;;;;;4384658;32;320172;-93
2023/02/02 08:03:03;;;;;;;188.30;109.90;;;;;;;;;;4376525;32;319667;-83
2023/02/02 08:05:33;;;;;;;174.30;106.70;;;;;;;;;;4385031;32;319775;-87
2023/02/02 08:08:00;;;;;;;188.67;109.73;;;;;;;;;;4386714;32;319949;-83
2023/02/02 08:10:30;;;;;;;186.80;109.47;;;;;;;;;;4356710;32;422316;-91
2023/02/02 08:12:57;;;;;;;164.20;96.20;;;;;;;;;;4370653;32;319965;-83
2023/02/02 08:15:25;;;;;;;170.60;99.37;;;;;;;;;;4358723;32;318917;-85
2023/02/02 08:17:52;;;;;;;139.43;87.73;;;;;;;;;;4371711;32;317546;-87
2023/02/02 08:20:20;;;;;;;134.07;75.83;;;;;;;;;;4359604;32;318875;-88
2023/02/02 08:22:48;;;;;;;130.03;74.90;;;;;;;;;;4370700;32;318803;-91
2023/02/02 08:25:15;;;;;;;130.40;79.83;;;;;;;;;;4361188;32;318918;-83
2023/02/02 08:27:44;;;;;;;99.67;53.80;;;;;;;;;;4371884;32;319197;-82
2023/02/02 08:30:13;;;;;;;107.30;62.93;;;;;;;;;;4360780;32;317820;-84
2023/02/02 08:32:41;;;;;;;88.87;48.93;;;;;;;;;;4372124;32;318261;-90
2023/02/02 08:35:08;;;;;;;54.90;36.70;;;;;;;;;;4362866;32;317642;-85
2023/02/02 08:37:36;;;;;;;63.63;38.07;;;;;;;;;;4371518;32;317591;-88
2023/02/02 08:40:04;;;;;;;61.00;37.37;;;;;;;;;;4361274;32;317633;-84
2023/02/02 08:42:32;;;;;;;87.10;41.63;;;;;;;;;;4369359;32;317987;-84
2023/02/02 08:45:01;;;;;;;59.10;32.03;;;;;;;;;;4372144;32;317794;-90
2023/02/02 08:47:30;;;;;;;73.57;37.83;;;;;;;;;;4359644;32;417016;-83
2023/02/02 08:49:58;;;;;;;182.27;60.60;;;;;;;;;;4373113;32;318211;-89
2023/02/02 08:52:26;;;;;;;85.57;35.30;;;;;;;;;;4361994;32;318881;-86
2023/02/02 08:54:53;;;;;;;37.60;22.80;;;;;;;;;;4371962;32;318048;-87
2023/02/02 08:57:21;;;;;;;68.80;25.57;;;;;;;;;;4359606;32;317925;-84
2023/02/02 08:59:48;;;;;;;30.23;19.17;;;;;;;;;;4372806;32;317417;-94
2023/02/02 09:02:18;;;;;;;35.50;20.27;;;;;;;;;;4362093;32;317795;-86
2023/02/02 09:04:47;;;;;;;57.93;29.33;;;;;;;;;;4370539;32;317873;-84
2023/02/02 09:07:14;;;;;;;41.10;22.53;;;;;;;;;;4361517;32;317722;-88
2023/02/02 09:09:42;;;;;;;25.63;15.07;;;;;;;;;;4370554;32;326065;-90
2023/02/02 09:12:09;;;;;;;38.13;18.03;;;;;;;;;;4361311;32;317593;-87
2023/02/02 09:14:37;;;;;;;32.70;15.30;;;;;;;;;;4368594;32;317675;-84
2023/02/02 09:17:05;;;;;;;38.10;22.47;;;;;;;;;;4360860;32;317836;-86
2023/02/02 09:19:34;;;;;;;37.97;21.80;;;;;;;;;;4372209;32;318084;-83
2023/02/02 09:22:01;;;;;;;38.03;21.73;;;;;;;;;;4370533;32;318040;-88
2023/02/02 09:24:29;;;;;;;39.17;23.07;;;;;;;;;;4355723;32;420330;-81
2023/02/02 09:26:56;;;;;;;37.97;24.03;;;;;;;;;;4371230;32;317682;-86
2023/02/02 09:29:24;;;;;;;63.83;33.67;;;;;;;;;;4361152;32;317900;-91
2023/02/02 09:31:52;;;;;;;45.33;26.97;;;;;;;;;;4372450;32;317717;-88
2023/02/02 09:34:19;;;;;;;38.00;23.23;;;;;;;;;;4359692;32;317723;-88
2023/02/02 09:36:49;;;;;;;45.00;26.90;;;;;;;;;;4372007;32;317761;-86
2023/02/02 09:39:18;;;;;;;56.03;27.63;;;;;;;;;;4358958;32;317615;-85
2023/02/02 09:42:09;;;;;;;42.03;26.87;;;;;;;;;;4373009;32;317706;-89
2023/02/02 09:44:56;;;;;;;35.07;22.00;;;;;;;;;;4351217;32;417482;-87
2023/02/02 09:47:26;;;;;;;34.07;21.73;;;;;;;;;;4363725;32;317585;-86
2023/02/02 09:50:02;;;;;;;39.07;23.23;;;;;;;;;;4375976;32;317860;-90
2023/02/02 09:52:36;;;;;;;39.47;21.37;;;;;;;;;;4364437;32;421891;-89
2023/02/02 09:57:41;;;;;;;41.87;22.30;;;;;;;;;;4346180;32;317811;-88
2023/02/02 10:00:24;;;;;;;42.53;25.00;;;;;;;;;;4335920;32;317433;-90
2023/02/02 10:02:57;;;;;;;39.87;22.43;;;;;;;;;;4344420;32;357342;-88
2023/02/02 10:05:29;;;;;;;45.47;23.93;;;;;;;;;;4335826;32;318430;-87
2023/02/02 10:08:02;;;;;;;52.03;22.20;;;;;;;;;;4345453;32;317830;-89
2023/02/02 10:10:33;;;;;;;35.33;20.80;;;;;;;;;;4332995;32;417558;-89
2023/02/02 10:13:05;;;;;;;44.83;22.90;;;;;;;;;;4345778;32;318419;-90
2023/02/02 10:15:39;;;;;;;53.80;29.40;;;;;;;;;;4331806;32;418270;-90
2023/02/02 10:18:15;;;;;;;49.83;28.23;;;;;;;;;;4334351;32;358724;-89
2023/02/02 10:20:46;;;;;;;41.63;24.17;;;;;;;;;;4344856;32;317941;-91
2023/02/02 10:23:26;;;;;;;101.37;53.37;;;;;;;;;;4335604;32;318077;-91
2023/02/02 10:25:57;;;;;;;46.13;27.10;;;;;;;;;;4345215;32;319443;-90
2023/02/02 10:28:50;;;;;;;40.13;23.93;;;;;;;;;;4334097;32;318183;-88
2023/02/02 10:31:22;;;;;;;31.67;14.73;;;;;;;;;;4335020;32;317985;-89
2023/02/02 10:34:02;;;;;;;23.73;16.03;;;;;;;;;;4344172;32;317558;-90
2023/02/02 10:36:38;;;;;;;28.87;15.87;;;;;;;;;;4332560;32;418121;-88
2023/02/02 10:39:12;;;;;;;27.73;16.33;;;;;;;;;;4335246;32;317595;-89
2023/02/02 10:41:46;;;;;;;33.03;17.70;;;;;;;;;;4344579;32;331953;-90
2023/02/02 10:44:21;;;;;;;35.47;18.93;;;;;;;;;;4333190;32;354063;-90
2023/02/02 10:46:51;;;;;;;35.83;17.37;;;;;;;;;;4345467;32;317578;-89
2023/02/02 10:49:27;;;;;;;46.97;24.17;;;;;;;;;;4334979;32;318440;-90
2023/02/02 10:51:58;;;;;;;49.47;26.03;;;;;;;;;;4345373;32;317803;-89
2023/02/02 10:55:01;;;;;;;28.00;17.87;;;;;;;;;;4335467;32;318381;-89
2023/02/02 10:57:51;;;;;;;18.67;12.83;;;;;;;;;;4332175;32;418517;-89
2023/02/02 11:00:25;;;;;;;22.37;13.03;;;;;;;;;;4335634;32;318359;-90
2023/02/02 11:02:52;;;;;;;19.13;11.53;;;;;;;;;;4346217;32;318198;-89
2023/02/02 11:08:15;;;;;;;32.03;16.67;;;;;;;;;;4335915;32;317790;-89
2023/02/02 11:10:45;;;;;;;21.27;12.27;;;;;;;;;;4347335;32;318952;-89
2023/02/02 11:13:19;;;;;;;24.23;13.13;;;;;;;;;;4336841;32;318864;-89
2023/02/02 11:15:46;;;;;;;17.03;10.63;;;;;;;;;;4346796;32;319282;-89
2023/02/02 11:18:15;;;;;;;21.07;13.80;;;;;;;;;;4333737;32;319548;-89
2023/02/02 11:20:45;;;;;;;27.80;13.17;;;;;;;;;;4343953;32;318942;-89
2023/02/02 11:23:18;;;;;;;12.73;8.20;;;;;;;;;;4334999;32;319439;-89
2023/02/02 11:25:56;;;;;;;12.27;8.13;;;;;;;;;;4344369;32;317367;-89
2023/02/02 11:28:29;;;;;;;14.50;7.97;;;;;;;;;;4334503;32;317741;-90
2023/02/02 11:30:56;;;;;;;14.60;6.87;;;;;;;;;;4343243;32;317614;-90
2023/02/02 11:33:28;;;;;;;11.07;6.03;;;;;;;;;;4334850;32;318504;-91
2023/02/02 11:35:57;;;;;;;6.80;3.63;;;;;;;;;;4344726;32;318390;-91
2023/02/02 11:38:27;;;;;;;7.10;3.43;;;;;;;;;;4333430;32;317639;-90
2023/02/02 11:40:59;;;;;;;11.03;4.97;;;;;;;;;;4344648;32;317601;-90
2023/02/02 11:43:29;;;;;;;5.23;3.80;;;;;;;;;;4335349;32;318531;-89
2023/02/02 11:45:59;;;;;;;9.70;4.43;;;;;;;;;;4344709;32;317716;-90
2023/02/02 11:48:30;;;;;;;5.90;2.70;;;;;;;;;;4335612;32;317529;-90
2023/02/02 11:50:58;;;;;;;10.67;3.10;;;;;;;;;;4344413;32;317522;-91
2023/02/02 11:53:27;;;;;;;6.57;4.30;;;;;;;;;;4335826;32;318486;-91
2023/02/02 11:55:58;;;;;;;14.33;5.77;;;;;;;;;;4346579;32;316648;-93
2023/02/02 11:58:29;;;;;;;8.10;4.93;;;;;;;;;;4335052;32;317863;-91
2023/02/02 12:00:59;;;;;;;12.93;7.10;;;;;;;;;;4345272;32;316489;-91
2023/02/02 12:03:32;;;;;;;22.03;11.83;;;;;;;;;;4330044;32;317514;-95
2023/02/02 12:06:01;;;;;;;17.47;6.13;;;;;;;;;;4352946;32;340490;-92
2023/02/02 12:08:30;;;;;;;6.67;4.47;;;;;;;;;;4338100;32;417441;-93
2023/02/02 12:11:01;;;;;;;6.13;3.40;;;;;;;;;;4345016;32;317245;-93
2023/02/02 12:13:59;;;;;;;7.97;3.53;;;;;;;;;;4345783;32;411867;-94
2023/02/02 12:16:40;;;;;;;4.57;3.20;;;;;;;;;;4343314;32;316746;-94
2023/02/02 12:19:22;;;;;;;5.80;3.63;;;;;;;;;;4349541;32;316999;-94
2023/02/02 12:21:57;;;;;;;8.27;4.73;;;;;;;;;;4358690;32;316579;-91
2023/02/02 12:24:30;;;;;;;5.47;4.20;;;;;;;;;;4351143;32;316768;-92
2023/02/02 12:27:15;;;;;;;7.13;4.30;;;;;;;;;;4359132;32;349993;-90
2023/02/02 12:29:55;;;;;;;16.70;7.80;;;;;;;;;;4347761;32;415293;-92
2023/02/02 12:32:34;;;;;;;17.80;8.13;;;;;;;;;;4349010;32;317845;-92
2023/02/02 12:35:20;;;;;;;10.70;5.50;;;;;;;;;;4358578;32;317921;-92
2023/02/02 12:37:59;;;;;;;5.67;3.23;;;;;;;;;;4348673;32;418028;-93
2023/02/02 12:40:51;;;;;;;12.07;3.80;;;;;;;;;;4350720;32;316568;-94
2023/02/02 12:43:30;;;;;;;5.23;3.60;;;;;;;;;;4351918;32;317733;-93
2023/02/02 12:46:13;;;;;;;9.07;3.57;;;;;;;;;;4360111;32;316732;-93
2023/02/02 12:48:56;;;;;;;12.60;5.83;;;;;;;;;;4345643;32;417021;-92
2023/02/02 12:51:38;;;;;;;7.67;4.77;;;;;;;;;;4349802;32;317858;-91
2023/02/02 12:54:20;;;;;;;6.63;2.90;;;;;;;;;;4348338;32;317147;-92
2023/02/02 12:56:54;;;;;;;4.83;3.60;;;;;;;;;;4357318;32;316662;-93
2023/02/02 12:59:36;;;;;;;7.73;4.07;;;;;;;;;;4348584;32;317166;-90
2023/02/02 13:02:08;;;;;;;6.03;4.20;;;;;;;;;;4349525;32;317567;-91
2023/02/02 13:04:59;;;;;;;7.83;4.40;;;;;;;;;;4361091;32;316710;-89
2023/02/02 13:07:41;;;;;;;10.73;4.00;;;;;;;;;;4352678;32;317301;-90
2023/02/02 13:10:24;;;;;;;8.83;5.70;;;;;;;;;;4352477;32;317971;-91
2023/02/02 13:12:55;;;;;;;9.60;4.90;;;;;;;;;;4361106;32;317121;-90
2023/02/02 13:15:29;;;;;;;6.20;3.80;;;;;;;;;;4349421;32;316689;-91
2023/02/02 13:17:59;;;;;;;11.97;3.87;;;;;;;;;;4358448;32;317856;-93
2023/02/02 13:20:37;;;;;;;8.13;6.13;;;;;;;;;;4347417;32;317843;-90
2023/02/02 13:23:09;;;;;;;8.03;2.67;;;;;;;;;;4349265;32;317377;-90
2023/02/02 13:25:44;;;;;;;5.47;3.10;;;;;;;;;;4358732;32;316996;-91
2023/02/02 13:28:18;;;;;;;10.33;5.20;;;;;;;;;;4346997;32;317148;-91
2023/02/02 13:30:49;;;;;;;10.77;4.07;;;;;;;;;;4359027;32;318489;-89
2023/02/02 13:33:21;;;;;;;8.07;3.50;;;;;;;;;;4348826;32;317948;-92
2023/02/02 13:35:53;;;;;;;8.73;4.20;;;;;;;;;;4357341;32;317638;-90
2023/02/02 13:38:23;;;;;;;4.70;3.90;;;;;;;;;;4347717;32;316766;-90
2023/02/02 13:40:56;;;;;;;6.70;4.73;;;;;;;;;;4358248;32;317446;-91
2023/02/02 13:43:33;;;;;;;7.47;5.65;;;;;;;;;;4348625;32;335001;-90
2023/02/02 13:46:12;;;;;;;8.03;5.47;;;;;;;;;;4361248;32;316820;-91
2023/02/02 13:48:52;;;;;;;8.97;5.70;;;;;;;;;;4348130;32;414327;-90
2023/02/02 13:51:43;;;;;;;7.50;4.93;;;;;;;;;;4346154;32;317422;-90
2023/02/02 13:54:45;;;;;;;13.73;5.23;;;;;;;;;;4348669;32;316386;-90
2023/02/02 13:57:24;;;;;;;12.80;7.87;;;;;;;;;;4346456;32;318288;-90
2023/02/02 14:00:02;;;;;;;20.63;8.00;;;;;;;;;;4358268;32;318326;-92
2023/02/02 14:02:35;;;;;;;8.30;5.93;;;;;;;;;;4346773;32;416675;-90
2023/02/02 14:05:05;;;;;;;10.83;7.40;;;;;;;;;;4359021;32;317239;-89
2023/02/02 14:07:38;;;;;;;16.63;5.43;;;;;;;;;;4346763;32;418460;-90
2023/02/02 14:10:06;;;;;;;8.10;4.30;;;;;;;;;;4348512;32;355172;-89
2023/02/02 14:12:35;;;;;;;7.03;5.03;;;;;;;;;;4358972;32;317374;-89
2023/02/02 14:15:02;;;;;;;8.73;5.13;;;;;;;;;;4365087;32;316900;-91
2023/02/02 14:17:55;;;;;;;9.97;5.53;;;;;;;;;;4357311;32;418961;-90
2023/02/02 14:20:43;;;;;;;15.37;9.80;;;;;;;;;;4362377;32;317323;-92
2023/02/02 14:23:49;;;;;;;12.43;6.20;;;;;;;;;;4362664;32;316287;-89
2023/02/02 14:26:20;;;;;;;12.33;6.93;;;;;;;;;;4362497;32;318372;-90
2023/02/02 14:28:49;;;;;;;7.50;3.57;;;;;;;;;;4373113;32;316674;-91
2023/02/02 14:31:35;;;;;;;13.77;6.13;;;;;;;;;;4361968;32;315366;-90
2023/02/02 14:34:27;;;;;;;23.17;8.67;;;;;;;;;;4371810;32;317404;-89
2023/02/02 14:37:08;;;;;;;23.00;11.73;;;;;;;;;;4348591;32;421522;-90
2023/02/02 14:39:40;;;;;;;47.60;27.53;;;;;;;;;;4348345;32;419728;-91
2023/02/02 14:45:21;;;;;;;38.50;22.63;;;;;;;;;;4351425;32;318661;-91
2023/02/02 14:47:51;;;;;;;22.70;16.80;;;;;;;;;;4360885;32;318589;-92
2023/02/02 14:50:25;;;;;;;16.60;9.20;;;;;;;;;;4349515;32;318668;-92